sensor_id;sensor_type;location;lat;lon;timestamp;temperature;humidity
21487;DHT22;10905;50.822;4.336;2023-06-05T00:00:21;17.20;99.90
21487;DHT22;10905;50.822;4.336;2023-06-05T00:02:47;17.20;99.90
21487;DHT22;10905;50.822;4.336;2023-06-05T00:05:13;17.10;99.90
21487;DHT22;10905;50.822;4.336;2023-06-05T00:07:38;17.10;99.90
21487;DHT22;10905;50.822;4.336;2023-06-05T00:10:07;17.00;99.90
21487;DHT22;10905;50.822;4.336;2023-06-05T00:12:33;17.10;99.90
21487;DHT22;10905;50.822;4.336;2023-06-05T00:14:58;17.10;99.90
21487;DHT22;10905;50.822;4.336;2023-06-05T00:17:25;17.10;99.90
21487;DHT22;10905;50.822;4.336;2023-06-05T00:19:50;17.00;99.90
21487;DHT22;10905;50.822;4.336;2023-06-05T00:22:16;17.10;99.90
21487;DHT22;10905;50.822;4.336;2023-06-05T00:24:41;17.00;99.90
21487;DHT22;10905;50.822;4.336;2023-06-05T00:27:07;17.00;99.90
21487;DHT22;10905;50.822;4.336;2023-06-05T00:29:32;17.00;99.90
21487;DHT22;10905;50.822;4.336;2023-06-05T00:31:58;17.00;99.90
21487;DHT22;10905;50.822;4.336;2023-06-05T00:34:23;16.90;99.90
21487;DHT22;10905;50.822;4.336;2023-06-05T00:36:48;16.80;99.90
21487;DHT22;10905;50.822;4.336;2023-06-05T00:39:16;16.80;99.90
21487;DHT22;10905;50.822;4.336;2023-06-05T00:41:44;16.70;99.90
21487;DHT22;10905;50.822;4.336;2023-06-05T00:44:10;16.80;99.90
21487;DHT22;10905;50.822;4.336;2023-06-05T00:46:36;16.70;99.90
21487;DHT22;10905;50.822;4.336;2023-06-05T00:49:02;16.80;99.90
21487;DHT22;10905;50.822;4.336;2023-06-05T00:51:28;16.70;99.90
21487;DHT22;10905;50.822;4.336;2023-06-05T00:53:53;16.60;99.90
21487;DHT22;10905;50.822;4.336;2023-06-05T00:56:19;16.60;99.90
21487;DHT22;10905;50.822;4.336;2023-06-05T00:58:46;16.60;99.90
21487;DHT22;10905;50.822;4.336;2023-06-05T01:01:12;16.60;99.90
21487;DHT22;10905;50.822;4.336;2023-06-05T01:03:38;16.60;99.90
21487;DHT22;10905;50.822;4.336;2023-06-05T01:06:05;16.60;99.90
21487;DHT22;10905;50.822;4.336;2023-06-05T01:08:31;16.50;99.90
21487;DHT22;10905;50.822;4.336;2023-06-05T01:11:05;16.40;99.90
21487;DHT22;10905;50.822;4.336;2023-06-05T01:13:31;16.40;99.90
21487;DHT22;10905;50.822;4.336;2023-06-05T01:15:59;16.40;99.90
21487;DHT22;10905;50.822;4.336;2023-06-05T01:18:25;16.40;99.90
21487;DHT22;10905;50.822;4.336;2023-06-05T01:20:51;16.30;99.90
21487;DHT22;10905;50.822;4.336;2023-06-05T01:23:16;16.30;99.90
21487;DHT22;10905;50.822;4.336;2023-06-05T01:25:42;16.30;99.90
21487;DHT22;10905;50.822;4.336;2023-06-05T01:28:10;16.30;99.90
21487;DHT22;10905;50.822;4.336;2023-06-05T01:30:38;16.10;99.90
21487;DHT22;10905;50.822;4.336;2023-06-05T01:33:11;16.10;99.90
21487;DHT22;10905;50.822;4.336;2023-06-05T01:35:38;16.10;99.90
21487;DHT22;10905;50.822;4.336;2023-06-05T01:38:05;16.00;99.90
21487;DHT22;10905;50.822;4.336;2023-06-05T01:40:31;16.00;99.90
21487;DHT22;10905;50.822;4.336;2023-06-05T01:42:59;16.10;99.90
21487;DHT22;10905;50.822;4.336;2023-06-05T01:45:25;16.00;99.90
21487;DHT22;10905;50.822;4.336;2023-06-05T01:47:51;16.10;99.90
21487;DHT22;10905;50.822;4.336;2023-06-05T01:50:17;16.00;99.90
21487;DHT22;10905;50.822;4.336;2023-06-05T01:52:43;16.00;99.90
21487;DHT22;10905;50.822;4.336;2023-06-05T01:55:14;15.90;99.90
21487;DHT22;10905;50.822;4.336;2023-06-05T01:57:40;15.90;99.90
21487;DHT22;10905;50.822;4.336;2023-06-05T02:00:06;15.80;99.90
21487;DHT22;10905;50.822;4.336;2023-06-05T02:02:34;15.80;99.90
21487;DHT22;10905;50.822;4.336;2023-06-05T02:04:59;15.60;99.90
21487;DHT22;10905;50.822;4.336;2023-06-05T02:07:24;15.60;99.90
21487;DHT22;10905;50.822;4.336;2023-06-05T02:09:50;15.60;99.90
21487;DHT22;10905;50.822;4.336;2023-06-05T02:12:15;15.60;99.90
21487;DHT22;10905;50.822;4.336;2023-06-05T02:14:41;15.60;99.90
21487;DHT22;10905;50.822;4.336;2023-06-05T02:17:10;15.60;99.90
21487;DHT22;10905;50.822;4.336;2023-06-05T02:19:41;15.60;99.90
21487;DHT22;10905;50.822;4.336;2023-06-05T02:22:07;15.60;99.90
21487;DHT22;10905;50.822;4.336;2023-06-05T02:24:32;15.60;99.90
21487;DHT22;10905;50.822;4.336;2023-06-05T02:26:58;15.40;99.90
21487;DHT22;10905;50.822;4.336;2023-06-05T02:29:24;15.40;99.90
21487;DHT22;10905;50.822;4.336;2023-06-05T02:31:49;15.50;99.90
21487;DHT22;10905;50.822;4.336;2023-06-05T02:34:15;15.50;99.90
21487;DHT22;10905;50.822;4.336;2023-06-05T02:36:42;15.50;99.90
21487;DHT22;10905;50.822;4.336;2023-06-05T02:39:10;15.40;99.90
21487;DHT22;10905;50.822;4.336;2023-06-05T02:41:36;15.40;99.90
21487;DHT22;10905;50.822;4.336;2023-06-05T02:44:01;15.40;99.90
21487;DHT22;10905;50.822;4.336;2023-06-05T02:46:27;15.30;99.90
21487;DHT22;10905;50.822;4.336;2023-06-05T02:48:53;15.30;99.90
21487;DHT22;10905;50.822;4.336;2023-06-05T02:51:18;15.30;99.90
21487;DHT22;10905;50.822;4.336;2023-06-05T02:53:44;15.30;99.90
21487;DHT22;10905;50.822;4.336;2023-06-05T02:56:09;15.20;99.90
21487;DHT22;10905;50.822;4.336;2023-06-05T02:58:35;15.20;99.90
21487;DHT22;10905;50.822;4.336;2023-06-05T03:01:01;15.10;99.90
21487;DHT22;10905;50.822;4.336;2023-06-05T03:03:33;15.10;99.90
21487;DHT22;10905;50.822;4.336;2023-06-05T03:05:59;15.10;99.90
21487;DHT22;10905;50.822;4.336;2023-06-05T03:08:36;15.10;99.90
21487;DHT22;10905;50.822;4.336;2023-06-05T03:11:02;15.10;99.90
21487;DHT22;10905;50.822;4.336;2023-06-05T03:13:28;14.90;99.90
21487;DHT22;10905;50.822;4.336;2023-06-05T03:15:54;14.90;99.90
21487;DHT22;10905;50.822;4.336;2023-06-05T03:18:25;14.80;99.90
21487;DHT22;10905;50.822;4.336;2023-06-05T03:20:51;14.80;99.90
21487;DHT22;10905;50.822;4.336;2023-06-05T03:23:26;14.60;99.90
21487;DHT22;10905;50.822;4.336;2023-06-05T03:25:55;14.60;99.90
21487;DHT22;10905;50.822;4.336;2023-06-05T03:28:21;14.60;99.90
21487;DHT22;10905;50.822;4.336;2023-06-05T03:30:47;14.70;99.90
21487;DHT22;10905;50.822;4.336;2023-06-05T03:33:12;14.70;99.90
21487;DHT22;10905;50.822;4.336;2023-06-05T03:35:44;14.60;99.90
21487;DHT22;10905;50.822;4.336;2023-06-05T03:38:14;14.70;99.90
21487;DHT22;10905;50.822;4.336;2023-06-05T03:40:39;14.70;99.90
21487;DHT22;10905;50.822;4.336;2023-06-05T03:43:05;14.70;99.90
21487;DHT22;10905;50.822;4.336;2023-06-05T03:45:32;14.70;99.90
21487;DHT22;10905;50.822;4.336;2023-06-05T03:47:57;14.80;99.90
21487;DHT22;10905;50.822;4.336;2023-06-05T03:50:25;14.80;99.90
21487;DHT22;10905;50.822;4.336;2023-06-05T03:52:51;14.80;99.90
21487;DHT22;10905;50.822;4.336;2023-06-05T03:55:18;14.70;99.90
21487;DHT22;10905;50.822;4.336;2023-06-05T03:57:46;14.70;99.90
21487;DHT22;10905;50.822;4.336;2023-06-05T04:00:11;14.50;99.90
21487;DHT22;10905;50.822;4.336;2023-06-05T04:02:37;14.50;99.90
21487;DHT22;10905;50.822;4.336;2023-06-05T04:05:02;14.40;99.90
21487;DHT22;10905;50.822;4.336;2023-06-05T04:07:29;14.50;99.90
21487;DHT22;10905;50.822;4.336;2023-06-05T04:09:54;14.50;99.90
21487;DHT22;10905;50.822;4.336;2023-06-05T04:12:20;14.50;99.90
21487;DHT22;10905;50.822;4.336;2023-06-05T04:14:46;14.40;99.90
21487;DHT22;10905;50.822;4.336;2023-06-05T04:17:11;14.50;99.90
21487;DHT22;10905;50.822;4.336;2023-06-05T04:19:39;14.50;99.90
21487;DHT22;10905;50.822;4.336;2023-06-05T04:22:04;14.70;99.90
21487;DHT22;10905;50.822;4.336;2023-06-05T04:24:30;14.70;99.90
21487;DHT22;10905;50.822;4.336;2023-06-05T04:26:56;14.60;99.90
21487;DHT22;10905;50.822;4.336;2023-06-05T04:29:23;14.40;99.90
21487;DHT22;10905;50.822;4.336;2023-06-05T04:31:48;14.40;99.90
21487;DHT22;10905;50.822;4.336;2023-06-05T04:34:14;14.50;99.90
21487;DHT22;10905;50.822;4.336;2023-06-05T04:36:40;14.60;99.90
21487;DHT22;10905;50.822;4.336;2023-06-05T04:39:06;14.60;99.90
21487;DHT22;10905;50.822;4.336;2023-06-05T04:41:43;14.50;99.90
21487;DHT22;10905;50.822;4.336;2023-06-05T04:44:12;14.60;99.90
21487;DHT22;10905;50.822;4.336;2023-06-05T04:46:38;14.70;99.90
21487;DHT22;10905;50.822;4.336;2023-06-05T04:49:07;14.70;99.90
21487;DHT22;10905;50.822;4.336;2023-06-05T04:51:33;14.70;99.90
21487;DHT22;10905;50.822;4.336;2023-06-05T04:53:58;14.80;99.90
21487;DHT22;10905;50.822;4.336;2023-06-05T04:56:24;14.80;99.90
21487;DHT22;10905;50.822;4.336;2023-06-05T04:58:51;14.70;99.90
21487;DHT22;10905;50.822;4.336;2023-06-05T05:01:18;14.70;99.90
21487;DHT22;10905;50.822;4.336;2023-06-05T05:03:45;14.70;99.90
21487;DHT22;10905;50.822;4.336;2023-06-05T05:06:16;14.80;99.90
21487;DHT22;10905;50.822;4.336;2023-06-05T05:08:42;14.70;99.90
21487;DHT22;10905;50.822;4.336;2023-06-05T05:11:10;14.80;99.90
21487;DHT22;10905;50.822;4.336;2023-06-05T05:13:36;14.80;99.90
21487;DHT22;10905;50.822;4.336;2023-06-05T05:16:01;14.80;99.90
21487;DHT22;10905;50.822;4.336;2023-06-05T05:18:27;14.80;99.90
21487;DHT22;10905;50.822;4.336;2023-06-05T05:20:53;14.80;99.90
21487;DHT22;10905;50.822;4.336;2023-06-05T05:23:19;14.80;99.90
21487;DHT22;10905;50.822;4.336;2023-06-05T05:25:46;14.90;99.90
21487;DHT22;10905;50.822;4.336;2023-06-05T05:28:11;14.90;99.90
21487;DHT22;10905;50.822;4.336;2023-06-05T05:30:37;15.00;99.90
21487;DHT22;10905;50.822;4.336;2023-06-05T05:33:03;15.10;99.90
21487;DHT22;10905;50.822;4.336;2023-06-05T05:35:28;15.20;99.90
21487;DHT22;10905;50.822;4.336;2023-06-05T05:37:54;15.20;99.90
21487;DHT22;10905;50.822;4.336;2023-06-05T05:40:20;15.20;99.90
21487;DHT22;10905;50.822;4.336;2023-06-05T05:42:45;15.30;99.90
21487;DHT22;10905;50.822;4.336;2023-06-05T05:45:11;15.40;99.90
21487;DHT22;10905;50.822;4.336;2023-06-05T05:47:36;15.30;99.90
21487;DHT22;10905;50.822;4.336;2023-06-05T05:50:02;15.40;99.90
21487;DHT22;10905;50.822;4.336;2023-06-05T05:52:27;15.40;99.90
21487;DHT22;10905;50.822;4.336;2023-06-05T05:54:53;15.30;99.90
21487;DHT22;10905;50.822;4.336;2023-06-05T05:57:18;15.30;99.90
21487;DHT22;10905;50.822;4.336;2023-06-05T05:59:44;15.30;99.90
21487;DHT22;10905;50.822;4.336;2023-06-05T06:02:12;15.40;99.90
21487;DHT22;10905;50.822;4.336;2023-06-05T06:04:38;15.30;99.90
21487;DHT22;10905;50.822;4.336;2023-06-05T06:07:04;15.40;99.90
21487;DHT22;10905;50.822;4.336;2023-06-05T06:09:30;15.50;99.90
21487;DHT22;10905;50.822;4.336;2023-06-05T06:11:56;15.60;99.90
21487;DHT22;10905;50.822;4.336;2023-06-05T06:14:22;15.80;99.90
21487;DHT22;10905;50.822;4.336;2023-06-05T06:16:48;15.90;99.90
21487;DHT22;10905;50.822;4.336;2023-06-05T06:19:15;15.90;99.90
21487;DHT22;10905;50.822;4.336;2023-06-05T06:21:41;15.90;99.90
21487;DHT22;10905;50.822;4.336;2023-06-05T06:24:07;16.00;99.90
21487;DHT22;10905;50.822;4.336;2023-06-05T06:26:33;16.00;99.90
21487;DHT22;10905;50.822;4.336;2023-06-05T06:28:58;15.90;99.90
21487;DHT22;10905;50.822;4.336;2023-06-05T06:31:25;15.80;99.90
21487;DHT22;10905;50.822;4.336;2023-06-05T06:33:50;15.90;99.90
21487;DHT22;10905;50.822;4.336;2023-06-05T06:36:17;16.10;99.90
21487;DHT22;10905;50.822;4.336;2023-06-05T06:38:43;16.30;99.90
21487;DHT22;10905;50.822;4.336;2023-06-05T06:41:08;16.20;99.90
21487;DHT22;10905;50.822;4.336;2023-06-05T06:43:34;16.20;99.90
21487;DHT22;10905;50.822;4.336;2023-06-05T06:46:00;16.20;99.90
21487;DHT22;10905;50.822;4.336;2023-06-05T06:48:25;16.20;99.90
21487;DHT22;10905;50.822;4.336;2023-06-05T06:50:51;16.20;99.90
21487;DHT22;10905;50.822;4.336;2023-06-05T06:53:18;16.30;99.90
21487;DHT22;10905;50.822;4.336;2023-06-05T06:55:44;16.40;99.90
21487;DHT22;10905;50.822;4.336;2023-06-05T06:58:09;16.60;99.90
21487;DHT22;10905;50.822;4.336;2023-06-05T07:00:35;16.50;99.90
21487;DHT22;10905;50.822;4.336;2023-06-05T07:03:01;16.30;99.90
21487;DHT22;10905;50.822;4.336;2023-06-05T07:05:26;16.40;99.90
21487;DHT22;10905;50.822;4.336;2023-06-05T07:07:52;16.50;99.90
21487;DHT22;10905;50.822;4.336;2023-06-05T07:10:17;16.60;99.90
21487;DHT22;10905;50.822;4.336;2023-06-05T07:12:43;16.60;99.90
21487;DHT22;10905;50.822;4.336;2023-06-05T07:15:08;16.70;99.90
21487;DHT22;10905;50.822;4.336;2023-06-05T07:17:34;16.90;99.90
21487;DHT22;10905;50.822;4.336;2023-06-05T07:19:59;16.90;99.90
21487;DHT22;10905;50.822;4.336;2023-06-05T07:22:25;16.80;99.90
21487;DHT22;10905;50.822;4.336;2023-06-05T07:24:53;16.90;99.90
21487;DHT22;10905;50.822;4.336;2023-06-05T07:27:19;16.80;99.90
21487;DHT22;10905;50.822;4.336;2023-06-05T07:29:45;16.90;99.90
21487;DHT22;10905;50.822;4.336;2023-06-05T07:32:12;17.10;99.90
21487;DHT22;10905;50.822;4.336;2023-06-05T07:34:37;17.20;99.90
21487;DHT22;10905;50.822;4.336;2023-06-05T07:37:03;17.40;99.90
21487;DHT22;10905;50.822;4.336;2023-06-05T07:39:29;17.40;99.90
21487;DHT22;10905;50.822;4.336;2023-06-05T07:41:55;17.40;99.90
21487;DHT22;10905;50.822;4.336;2023-06-05T07:44:21;17.30;99.90
21487;DHT22;10905;50.822;4.336;2023-06-05T07:46:47;17.50;99.90
21487;DHT22;10905;50.822;4.336;2023-06-05T07:49:12;17.50;99.90
21487;DHT22;10905;50.822;4.336;2023-06-05T07:51:38;17.70;99.90
21487;DHT22;10905;50.822;4.336;2023-06-05T07:54:08;17.60;99.90
21487;DHT22;10905;50.822;4.336;2023-06-05T07:56:34;17.30;99.90
21487;DHT22;10905;50.822;4.336;2023-06-05T07:59:00;17.40;99.90
21487;DHT22;10905;50.822;4.336;2023-06-05T08:01:26;17.50;99.90
21487;DHT22;10905;50.822;4.336;2023-06-05T08:03:53;17.60;99.90
21487;DHT22;10905;50.822;4.336;2023-06-05T08:06:18;17.60;99.90
21487;DHT22;10905;50.822;4.336;2023-06-05T08:08:43;17.70;99.90
21487;DHT22;10905;50.822;4.336;2023-06-05T08:11:09;18.00;99.90
21487;DHT22;10905;50.822;4.336;2023-06-05T08:13:36;18.10;99.90
21487;DHT22;10905;50.822;4.336;2023-06-05T08:16:02;18.20;99.90
21487;DHT22;10905;50.822;4.336;2023-06-05T08:18:27;18.30;99.90
21487;DHT22;10905;50.822;4.336;2023-06-05T08:20:53;18.40;99.90
21487;DHT22;10905;50.822;4.336;2023-06-05T08:23:19;18.60;99.90
21487;DHT22;10905;50.822;4.336;2023-06-05T08:25:44;18.60;99.90
21487;DHT22;10905;50.822;4.336;2023-06-05T08:28:10;18.60;99.90
21487;DHT22;10905;50.822;4.336;2023-06-05T08:30:36;18.70;99.90
21487;DHT22;10905;50.822;4.336;2023-06-05T08:33:01;18.50;99.90
21487;DHT22;10905;50.822;4.336;2023-06-05T08:35:27;18.50;99.90
21487;DHT22;10905;50.822;4.336;2023-06-05T08:37:52;18.70;99.90
21487;DHT22;10905;50.822;4.336;2023-06-05T08:40:18;18.70;99.90
21487;DHT22;10905;50.822;4.336;2023-06-05T08:42:44;18.80;99.90
21487;DHT22;10905;50.822;4.336;2023-06-05T08:45:09;18.90;99.90
21487;DHT22;10905;50.822;4.336;2023-06-05T08:47:35;19.00;99.90
21487;DHT22;10905;50.822;4.336;2023-06-05T08:50:02;19.00;99.90
21487;DHT22;10905;50.822;4.336;2023-06-05T08:52:28;18.90;99.90
21487;DHT22;10905;50.822;4.336;2023-06-05T08:54:56;18.80;99.90
21487;DHT22;10905;50.822;4.336;2023-06-05T08:57:22;18.60;99.90
21487;DHT22;10905;50.822;4.336;2023-06-05T08:59:48;18.60;99.90
21487;DHT22;10905;50.822;4.336;2023-06-05T09:02:15;18.90;99.90
21487;DHT22;10905;50.822;4.336;2023-06-05T09:04:40;19.00;99.90
21487;DHT22;10905;50.822;4.336;2023-06-05T09:07:06;19.20;99.90
21487;DHT22;10905;50.822;4.336;2023-06-05T09:09:35;19.50;99.90
21487;DHT22;10905;50.822;4.336;2023-06-05T09:12:05;19.40;99.90
21487;DHT22;10905;50.822;4.336;2023-06-05T09:14:31;19.40;99.90
21487;DHT22;10905;50.822;4.336;2023-06-05T09:16:56;19.30;99.90
21487;DHT22;10905;50.822;4.336;2023-06-05T09:19:22;19.50;99.90
21487;DHT22;10905;50.822;4.336;2023-06-05T09:21:52;19.80;99.90
21487;DHT22;10905;50.822;4.336;2023-06-05T09:24:19;19.70;99.90
21487;DHT22;10905;50.822;4.336;2023-06-05T09:27:01;19.80;99.90
21487;DHT22;10905;50.822;4.336;2023-06-05T09:29:30;19.90;99.90
21487;DHT22;10905;50.822;4.336;2023-06-05T09:31:57;19.90;99.90
21487;DHT22;10905;50.822;4.336;2023-06-05T09:34:24;20.10;99.90
21487;DHT22;10905;50.822;4.336;2023-06-05T09:36:50;20.30;99.90
21487;DHT22;10905;50.822;4.336;2023-06-05T09:39:17;20.20;99.90
21487;DHT22;10905;50.822;4.336;2023-06-05T09:41:45;20.20;99.90
21487;DHT22;10905;50.822;4.336;2023-06-05T09:44:11;20.20;99.90
21487;DHT22;10905;50.822;4.336;2023-06-05T09:47:11;20.40;99.90
21487;DHT22;10905;50.822;4.336;2023-06-05T09:49:33;20.10;99.90
21487;DHT22;10905;50.822;4.336;2023-06-05T09:52:11;20.10;99.90
21487;DHT22;10905;50.822;4.336;2023-06-05T09:54:38;20.30;99.90
21487;DHT22;10905;50.822;4.336;2023-06-05T09:57:04;20.40;99.90
21487;DHT22;10905;50.822;4.336;2023-06-05T09:59:31;20.60;99.90
21487;DHT22;10905;50.822;4.336;2023-06-05T10:01:59;20.80;99.90
21487;DHT22;10905;50.822;4.336;2023-06-05T10:04:26;20.90;99.90
21487;DHT22;10905;50.822;4.336;2023-06-05T10:06:52;20.80;99.90
21487;DHT22;10905;50.822;4.336;2023-06-05T10:09:20;21.00;99.90
21487;DHT22;10905;50.822;4.336;2023-06-05T10:11:48;21.10;99.90
21487;DHT22;10905;50.822;4.336;2023-06-05T10:14:15;21.20;99.90
21487;DHT22;10905;50.822;4.336;2023-06-05T10:16:40;21.50;99.90
21487;DHT22;10905;50.822;4.336;2023-06-05T10:19:06;21.30;99.90
21487;DHT22;10905;50.822;4.336;2023-06-05T10:21:32;21.20;99.90
21487;DHT22;10905;50.822;4.336;2023-06-05T10:24:00;21.50;99.90
21487;DHT22;10905;50.822;4.336;2023-06-05T10:28:58;21.70;99.90
21487;DHT22;10905;50.822;4.336;2023-06-05T10:31:32;21.90;99.90
21487;DHT22;10905;50.822;4.336;2023-06-05T10:34:04;22.00;99.90
21487;DHT22;10905;50.822;4.336;2023-06-05T10:36:36;21.90;99.90
21487;DHT22;10905;50.822;4.336;2023-06-05T10:39:09;21.80;99.90
21487;DHT22;10905;50.822;4.336;2023-06-05T10:41:35;22.00;99.90
21487;DHT22;10905;50.822;4.336;2023-06-05T10:44:01;22.10;99.90
21487;DHT22;10905;50.822;4.336;2023-06-05T10:51:37;22.30;99.90
21487;DHT22;10905;50.822;4.336;2023-06-05T10:54:03;22.10;99.90
21487;DHT22;10905;50.822;4.336;2023-06-05T10:59:14;22.40;99.90
21487;DHT22;10905;50.822;4.336;2023-06-05T11:01:40;22.60;99.90
21487;DHT22;10905;50.822;4.336;2023-06-05T11:04:05;22.90;99.90
21487;DHT22;10905;50.822;4.336;2023-06-05T11:06:31;23.10;99.90
21487;DHT22;10905;50.822;4.336;2023-06-05T11:09:12;22.70;99.90
21487;DHT22;10905;50.822;4.336;2023-06-05T11:14:22;22.90;99.90
21487;DHT22;10905;50.822;4.336;2023-06-05T11:16:48;23.10;99.90
21487;DHT22;10905;50.822;4.336;2023-06-05T11:22:01;23.10;99.90
21487;DHT22;10905;50.822;4.336;2023-06-05T11:24:27;22.90;99.90
21487;DHT22;10905;50.822;4.336;2023-06-05T11:26:53;22.80;99.90
21487;DHT22;10905;50.822;4.336;2023-06-05T11:29:18;23.10;99.90
21487;DHT22;10905;50.822;4.336;2023-06-05T11:31:45;23.40;99.90
21487;DHT22;10905;50.822;4.336;2023-06-05T11:34:14;23.60;99.90
21487;DHT22;10905;50.822;4.336;2023-06-05T11:36:40;23.40;99.90
21487;DHT22;10905;50.822;4.336;2023-06-05T11:39:05;23.20;99.90
21487;DHT22;10905;50.822;4.336;2023-06-05T11:41:31;23.30;99.90
21487;DHT22;10905;50.822;4.336;2023-06-05T11:43:56;23.40;99.90
21487;DHT22;10905;50.822;4.336;2023-06-05T11:46:43;23.50;99.90
21487;DHT22;10905;50.822;4.336;2023-06-05T11:49:18;23.70;99.90
21487;DHT22;10905;50.822;4.336;2023-06-05T11:51:47;23.70;99.90
21487;DHT22;10905;50.822;4.336;2023-06-05T11:54:22;23.90;99.90
21487;DHT22;10905;50.822;4.336;2023-06-05T11:56:48;24.00;99.90
21487;DHT22;10905;50.822;4.336;2023-06-05T11:59:17;24.00;99.60
21487;DHT22;10905;50.822;4.336;2023-06-05T12:01:43;24.00;99.20
21487;DHT22;10905;50.822;4.336;2023-06-05T12:04:09;24.10;99.80
21487;DHT22;10905;50.822;4.336;2023-06-05T12:06:41;24.20;98.90
21487;DHT22;10905;50.822;4.336;2023-06-05T12:09:10;24.20;99.40
21487;DHT22;10905;50.822;4.336;2023-06-05T12:11:37;24.30;99.90
21487;DHT22;10905;50.822;4.336;2023-06-05T12:14:09;24.30;99.10
21487;DHT22;10905;50.822;4.336;2023-06-05T12:16:36;24.10;99.40
21487;DHT22;10905;50.822;4.336;2023-06-05T12:19:10;24.20;99.20
21487;DHT22;10905;50.822;4.336;2023-06-05T12:21:37;24.20;98.90
21487;DHT22;10905;50.822;4.336;2023-06-05T12:24:03;24.20;98.70
21487;DHT22;10905;50.822;4.336;2023-06-05T12:26:29;24.20;98.20
21487;DHT22;10905;50.822;4.336;2023-06-05T12:29:05;24.20;99.10
21487;DHT22;10905;50.822;4.336;2023-06-05T12:31:37;24.40;99.90
21487;DHT22;10905;50.822;4.336;2023-06-05T12:34:05;24.50;98.10
21487;DHT22;10905;50.822;4.336;2023-06-05T12:36:31;24.40;98.90
21487;DHT22;10905;50.822;4.336;2023-06-05T12:39:02;24.50;98.40
21487;DHT22;10905;50.822;4.336;2023-06-05T12:41:32;24.60;97.90
21487;DHT22;10905;50.822;4.336;2023-06-05T12:43:58;24.50;98.60
21487;DHT22;10905;50.822;4.336;2023-06-05T12:46:24;24.70;98.50
21487;DHT22;10905;50.822;4.336;2023-06-05T12:48:50;24.80;97.30
21487;DHT22;10905;50.822;4.336;2023-06-05T12:51:16;24.70;97.50
21487;DHT22;10905;50.822;4.336;2023-06-05T12:53:41;24.90;98.30
21487;DHT22;10905;50.822;4.336;2023-06-05T12:56:07;25.10;96.70
21487;DHT22;10905;50.822;4.336;2023-06-05T12:58:33;25.00;97.20
21487;DHT22;10905;50.822;4.336;2023-06-05T13:00:59;25.10;96.90
21487;DHT22;10905;50.822;4.336;2023-06-05T13:03:25;24.90;96.50
21487;DHT22;10905;50.822;4.336;2023-06-05T13:05:50;24.90;94.90
21487;DHT22;10905;50.822;4.336;2023-06-05T13:08:16;24.60;93.70
21487;DHT22;10905;50.822;4.336;2023-06-05T13:10:41;24.70;93.10
21487;DHT22;10905;50.822;4.336;2023-06-05T13:13:07;24.90;92.60
21487;DHT22;10905;50.822;4.336;2023-06-05T13:15:32;25.00;94.10
21487;DHT22;10905;50.822;4.336;2023-06-05T13:17:58;24.90;95.50
21487;DHT22;10905;50.822;4.336;2023-06-05T13:20:23;25.00;92.20
21487;DHT22;10905;50.822;4.336;2023-06-05T13:22:49;25.10;92.80
21487;DHT22;10905;50.822;4.336;2023-06-05T13:25:14;25.30;92.60
21487;DHT22;10905;50.822;4.336;2023-06-05T13:27:40;25.60;91.60
21487;DHT22;10905;50.822;4.336;2023-06-05T13:30:06;25.80;90.80
21487;DHT22;10905;50.822;4.336;2023-06-05T13:32:32;25.60;91.00
21487;DHT22;10905;50.822;4.336;2023-06-05T13:34:59;25.60;92.50
21487;DHT22;10905;50.822;4.336;2023-06-05T13:37:24;25.40;92.80
21487;DHT22;10905;50.822;4.336;2023-06-05T13:39:50;25.50;92.40
21487;DHT22;10905;50.822;4.336;2023-06-05T13:42:15;25.60;91.60
21487;DHT22;10905;50.822;4.336;2023-06-05T13:44:41;25.70;90.40
21487;DHT22;10905;50.822;4.336;2023-06-05T13:47:06;25.60;91.20
21487;DHT22;10905;50.822;4.336;2023-06-05T13:49:34;25.70;91.50
21487;DHT22;10905;50.822;4.336;2023-06-05T13:51:59;25.60;91.60
21487;DHT22;10905;50.822;4.336;2023-06-05T13:54:25;25.70;92.40
21487;DHT22;10905;50.822;4.336;2023-06-05T13:56:50;25.80;92.10
21487;DHT22;10905;50.822;4.336;2023-06-05T13:59:17;25.80;90.40
21487;DHT22;10905;50.822;4.336;2023-06-05T14:01:43;25.90;90.90
21487;DHT22;10905;50.822;4.336;2023-06-05T14:04:08;26.20;90.90
21487;DHT22;10905;50.822;4.336;2023-06-05T14:06:34;26.30;90.80
21487;DHT22;10905;50.822;4.336;2023-06-05T14:09:04;26.50;90.60
21487;DHT22;10905;50.822;4.336;2023-06-05T14:11:29;26.10;90.20
21487;DHT22;10905;50.822;4.336;2023-06-05T14:13:55;26.20;90.10
21487;DHT22;10905;50.822;4.336;2023-06-05T14:16:20;26.40;90.10
21487;DHT22;10905;50.822;4.336;2023-06-05T14:18:45;26.20;89.70
21487;DHT22;10905;50.822;4.336;2023-06-05T14:21:11;26.10;89.50
21487;DHT22;10905;50.822;4.336;2023-06-05T14:23:36;26.00;88.70
21487;DHT22;10905;50.822;4.336;2023-06-05T14:26:03;26.10;90.20
21487;DHT22;10905;50.822;4.336;2023-06-05T14:28:29;26.30;88.80
21487;DHT22;10905;50.822;4.336;2023-06-05T14:30:55;26.30;88.70
21487;DHT22;10905;50.822;4.336;2023-06-05T14:33:20;26.10;87.50
21487;DHT22;10905;50.822;4.336;2023-06-05T14:35:46;26.20;88.90
21487;DHT22;10905;50.822;4.336;2023-06-05T14:38:11;26.30;87.80
21487;DHT22;10905;50.822;4.336;2023-06-05T14:40:38;26.40;86.30
21487;DHT22;10905;50.822;4.336;2023-06-05T14:43:03;25.80;87.60
21487;DHT22;10905;50.822;4.336;2023-06-05T14:45:29;25.90;88.40
21487;DHT22;10905;50.822;4.336;2023-06-05T14:47:54;26.10;90.40
21487;DHT22;10905;50.822;4.336;2023-06-05T14:50:20;26.30;88.80
21487;DHT22;10905;50.822;4.336;2023-06-05T14:52:45;26.40;87.40
21487;DHT22;10905;50.822;4.336;2023-06-05T14:55:11;26.70;90.00
21487;DHT22;10905;50.822;4.336;2023-06-05T14:57:36;26.40;86.60
21487;DHT22;10905;50.822;4.336;2023-06-05T15:00:02;26.10;87.90
21487;DHT22;10905;50.822;4.336;2023-06-05T15:02:30;26.00;87.00
21487;DHT22;10905;50.822;4.336;2023-06-05T15:04:55;26.10;89.10
21487;DHT22;10905;50.822;4.336;2023-06-05T15:07:23;26.40;86.40
21487;DHT22;10905;50.822;4.336;2023-06-05T15:09:49;26.50;86.80
21487;DHT22;10905;50.822;4.336;2023-06-05T15:12:16;26.80;87.30
21487;DHT22;10905;50.822;4.336;2023-06-05T15:14:42;26.90;88.60
21487;DHT22;10905;50.822;4.336;2023-06-05T15:17:07;27.00;87.70
21487;DHT22;10905;50.822;4.336;2023-06-05T15:19:36;26.90;87.60
21487;DHT22;10905;50.822;4.336;2023-06-05T15:22:01;27.20;88.10
21487;DHT22;10905;50.822;4.336;2023-06-05T15:24:27;27.50;87.50
21487;DHT22;10905;50.822;4.336;2023-06-05T15:26:53;27.60;85.30
21487;DHT22;10905;50.822;4.336;2023-06-05T15:29:18;27.70;86.50
21487;DHT22;10905;50.822;4.336;2023-06-05T15:31:44;27.50;85.00
21487;DHT22;10905;50.822;4.336;2023-06-05T15:34:10;27.30;86.70
21487;DHT22;10905;50.822;4.336;2023-06-05T15:36:35;27.40;87.00
21487;DHT22;10905;50.822;4.336;2023-06-05T15:39:02;27.00;87.50
21487;DHT22;10905;50.822;4.336;2023-06-05T15:41:27;26.80;88.30